createdAt,value
2017-10-30T00:00:13.868Z,7.20
2017-10-30T00:02:43.111Z,7.20
2017-10-30T00:05:12.353Z,7.20
2017-10-30T00:07:42.407Z,7.10
2017-10-30T00:10:11.635Z,7.10
2017-10-30T00:12:40.911Z,7.10
2017-10-30T00:15:10.166Z,7.20
2017-10-30T00:17:39.415Z,7.20
2017-10-30T00:20:08.691Z,7.10
2017-10-30T00:22:37.976Z,7.10
2017-10-30T00:25:08.046Z,7.10
2017-10-30T00:27:37.324Z,7.10
2017-10-30T00:30:06.580Z,7.10
2017-10-30T00:32:35.828Z,7.10
2017-10-30T00:35:05.128Z,7.10
2017-10-30T00:37:34.384Z,7.20
2017-10-30T00:40:03.626Z,7.20
2017-10-30T00:42:32.999Z,7.30
2017-10-30T00:45:02.265Z,7.30
2017-10-30T00:47:31.517Z,7.30
2017-10-30T00:50:00.793Z,7.30
2017-10-30T00:52:30.046Z,7.20
2017-10-30T00:54:59.300Z,7.30
2017-10-30T00:57:28.544Z,7.30
2017-10-30T00:59:57.789Z,7.30
2017-10-30T01:02:27.052Z,7.30
2017-10-30T01:04:56.341Z,7.30
2017-10-30T01:07:25.595Z,7.30
2017-10-30T01:09:55.623Z,7.30
2017-10-30T01:12:25.007Z,7.20
2017-10-30T01:14:55.021Z,7.10
2017-10-30T01:17:24.284Z,7.20
2017-10-30T01:19:53.544Z,7.10
2017-10-30T01:22:22.785Z,7.10
2017-10-30T01:24:52.043Z,7.10
2017-10-30T01:27:21.321Z,7.00
2017-10-30T01:29:51.344Z,7.00
2017-10-30T01:32:20.608Z,7.00
2017-10-30T01:34:49.860Z,6.90
2017-10-30T01:37:19.111Z,6.80
2017-10-30T01:39:48.396Z,6.90
2017-10-30T01:42:17.649Z,6.90
2017-10-30T01:44:47.691Z,6.90
2017-10-30T01:47:16.986Z,6.90
2017-10-30T01:49:46.230Z,6.90
2017-10-30T01:52:15.500Z,6.90
2017-10-30T01:54:45.557Z,6.80
2017-10-30T01:57:14.803Z,6.80
2017-10-30T01:59:44.070Z,6.80
2017-10-30T02:02:14.223Z,6.70
2017-10-30T02:04:43.705Z,6.70
2017-10-30T02:07:13.113Z,6.70
2017-10-30T02:09:42.581Z,6.70
2017-10-30T02:12:11.847Z,6.60
2017-10-30T02:14:41.855Z,6.70
2017-10-30T02:17:11.893Z,6.70
2017-10-30T02:19:41.120Z,6.60
2017-10-30T02:22:10.343Z,6.70
2017-10-30T02:24:39.621Z,6.70
2017-10-30T02:27:08.846Z,6.70
2017-10-30T02:29:38.090Z,6.70
2017-10-30T02:32:07.358Z,6.70
2017-10-30T02:34:36.592Z,6.70
2017-10-30T02:37:05.834Z,6.70
2017-10-30T02:39:35.095Z,6.70
2017-10-30T02:42:04.363Z,6.60
2017-10-30T02:44:33.657Z,6.60
2017-10-30T02:47:02.887Z,6.60
2017-10-30T02:49:32.258Z,6.50
2017-10-30T02:52:01.483Z,6.50
2017-10-30T02:54:31.494Z,6.40
2017-10-30T02:57:01.524Z,6.40
2017-10-30T02:59:30.751Z,6.40
2017-10-30T03:01:59.983Z,6.40
2017-10-30T03:04:29.235Z,6.40
2017-10-30T03:06:58.463Z,6.30
2017-10-30T03:09:27.719Z,6.30
2017-10-30T03:11:56.956Z,6.30
2017-10-30T03:14:26.228Z,6.30
2017-10-30T03:16:55.472Z,6.30
2017-10-30T03:19:24.698Z,6.20
2017-10-30T03:21:53.945Z,6.20
2017-10-30T03:24:23.199Z,6.20
2017-10-30T03:26:52.422Z,6.20
2017-10-30T03:29:21.688Z,6.20
2017-10-30T03:31:51.035Z,6.20
2017-10-30T03:34:20.287Z,6.30
2017-10-30T03:36:49.520Z,6.30
2017-10-30T03:39:19.559Z,6.20
2017-10-30T03:41:48.788Z,6.20
2017-10-30T03:44:18.018Z,6.20
2017-10-30T03:46:47.260Z,6.20
2017-10-30T03:49:16.565Z,6.30
2017-10-30T03:51:45.808Z,6.30
2017-10-30T03:54:15.040Z,6.40
2017-10-30T03:56:44.315Z,6.40
2017-10-30T03:59:13.608Z,6.40
2017-10-30T04:01:42.852Z,6.40
2017-10-30T04:04:12.130Z,6.40
2017-10-30T04:06:42.133Z,6.40
2017-10-30T04:09:11.398Z,6.40
2017-10-30T04:11:40.741Z,6.40
2017-10-30T04:14:09.932Z,6.50
2017-10-30T04:16:39.195Z,6.50
2017-10-30T04:19:08.452Z,6.50
2017-10-30T04:21:38.479Z,6.50
2017-10-30T04:24:07.712Z,6.50
2017-10-30T04:26:36.949Z,6.50
2017-10-30T04:29:06.234Z,6.50
2017-10-30T04:31:35.469Z,6.50
2017-10-30T04:34:05.477Z,6.60
2017-10-30T04:36:35.512Z,6.60
2017-10-30T04:39:04.777Z,6.60
2017-10-30T04:41:34.007Z,6.60
2017-10-30T04:44:04.063Z,6.60
2017-10-30T04:46:33.287Z,6.60
2017-10-30T04:49:02.537Z,6.70
2017-10-30T04:51:31.781Z,6.70
2017-10-30T04:54:01.160Z,6.70
2017-10-30T04:56:30.406Z,6.70
2017-10-30T04:58:59.661Z,6.80
2017-10-30T05:01:28.906Z,6.80
2017-10-30T05:03:58.256Z,6.80
2017-10-30T05:06:27.492Z,6.70
2017-10-30T05:08:56.736Z,6.70
2017-10-30T05:11:25.992Z,6.60
2017-10-30T05:13:55.252Z,6.60
2017-10-30T05:16:24.508Z,6.60
2017-10-30T05:18:53.892Z,6.50
2017-10-30T05:21:23.156Z,6.50
2017-10-30T05:23:52.387Z,6.40
2017-10-30T05:26:21.654Z,6.50
2017-10-30T05:28:50.892Z,6.40
2017-10-30T05:31:20.223Z,6.40
2017-10-30T05:33:49.425Z,6.40
2017-10-30T05:36:19.463Z,6.40
2017-10-30T05:38:48.698Z,6.40
2017-10-30T05:41:17.936Z,6.40
2017-10-30T05:43:47.992Z,6.20
2017-10-30T05:46:17.734Z,6.20
2017-10-30T05:48:47.005Z,6.20
2017-10-30T05:51:16.328Z,6.20
2017-10-30T05:53:45.564Z,6.20
2017-10-30T05:56:15.704Z,6.10
2017-10-30T05:58:44.937Z,6.10
2017-10-30T06:01:14.206Z,6.10
2017-10-30T06:03:43.448Z,6.20
2017-10-30T06:06:12.685Z,6.10
2017-10-30T06:08:42.720Z,6.10
2017-10-30T06:11:11.978Z,6.10
2017-10-30T06:13:41.195Z,6.20
2017-10-30T06:16:11.229Z,6.30
2017-10-30T06:18:40.506Z,6.30
2017-10-30T06:21:09.743Z,6.30
2017-10-30T06:23:38.985Z,6.40
2017-10-30T06:26:08.246Z,6.40
2017-10-30T06:28:37.517Z,6.40
2017-10-30T06:31:07.544Z,6.40
2017-10-30T06:33:37.544Z,6.50
2017-10-30T06:36:06.799Z,6.50
2017-10-30T06:38:36.110Z,6.50
2017-10-30T06:41:05.473Z,6.50
2017-10-30T06:43:35.499Z,6.60
2017-10-30T06:46:04.742Z,6.60
2017-10-30T06:48:34.032Z,6.60
2017-10-30T06:51:03.274Z,6.70
2017-10-30T06:53:32.541Z,6.70
2017-10-30T06:56:01.799Z,6.80
2017-10-30T06:58:31.074Z,6.80
2017-10-30T07:01:01.091Z,6.80
2017-10-30T07:03:30.354Z,6.80
2017-10-30T07:05:59.618Z,6.90
2017-10-30T07:08:29.623Z,6.90
2017-10-30T07:10:59.011Z,6.90
2017-10-30T07:13:29.334Z,7.00
2017-10-30T07:15:58.735Z,6.90
2017-10-30T07:18:27.973Z,7.00
2017-10-30T07:20:57.252Z,7.00
2017-10-30T07:23:27.249Z,7.10
2017-10-30T07:25:56.510Z,7.00
2017-10-30T07:28:25.736Z,7.10
2017-10-30T07:30:54.967Z,7.10
2017-10-30T07:33:25.031Z,7.10
2017-10-30T07:35:54.405Z,7.00
2017-10-30T07:38:24.391Z,7.20
2017-10-30T07:40:54.401Z,7.20
2017-10-30T07:43:23.653Z,7.20
2017-10-30T07:45:52.902Z,7.20
2017-10-30T07:48:22.251Z,7.30
2017-10-30T07:50:51.483Z,7.30
2017-10-30T07:53:20.979Z,7.40
2017-10-30T07:55:50.212Z,7.30
2017-10-30T07:58:20.245Z,7.40
2017-10-30T08:00:50.293Z,7.40
2017-10-30T08:03:19.528Z,7.40
2017-10-30T08:05:49.125Z,7.40
2017-10-30T08:08:18.405Z,7.40
2017-10-30T08:10:47.679Z,7.40
2017-10-30T08:13:16.880Z,7.40
2017-10-30T08:15:46.179Z,7.30
2017-10-30T08:18:15.439Z,7.40
2017-10-30T08:20:44.701Z,7.40
2017-10-30T08:23:13.962Z,7.50
2017-10-30T08:25:43.185Z,7.50
2017-10-30T08:28:12.420Z,7.50
2017-10-30T08:30:41.690Z,7.60
2017-10-30T08:33:10.907Z,7.70
2017-10-30T08:35:40.180Z,7.70
2017-10-30T08:38:13.254Z,7.70
2017-10-30T08:40:43.273Z,7.70
2017-10-30T08:43:13.304Z,7.70
2017-10-30T08:45:43.311Z,7.70
2017-10-30T08:48:12.545Z,7.70
2017-10-30T08:50:41.784Z,7.70
2017-10-30T08:53:11.048Z,7.80
2017-10-30T08:55:40.298Z,7.80
2017-10-30T08:58:09.531Z,7.80
2017-10-30T09:00:38.772Z,7.80
2017-10-30T09:03:08.029Z,7.70
2017-10-30T09:05:37.251Z,7.60
2017-10-30T09:08:06.500Z,7.60
2017-10-30T09:10:35.746Z,7.60
2017-10-30T09:13:04.987Z,7.60
2017-10-30T09:15:34.243Z,7.60
2017-10-30T09:18:03.477Z,7.60
2017-10-30T09:20:32.739Z,7.60
2017-10-30T09:23:01.984Z,7.70
2017-10-30T09:25:31.235Z,7.80
2017-10-30T09:28:00.525Z,7.80
2017-10-30T09:30:29.767Z,7.80
2017-10-30T09:32:59.005Z,7.90
2017-10-30T09:35:29.054Z,7.90
2017-10-30T09:37:59.084Z,7.90
2017-10-30T09:40:28.332Z,7.90
2017-10-30T09:42:57.581Z,8.00
2017-10-30T09:45:26.832Z,8.00
2017-10-30T09:47:56.143Z,8.00
2017-10-30T09:50:25.363Z,8.00
2017-10-30T09:52:54.588Z,8.00
2017-10-30T09:55:23.864Z,8.00
2017-10-30T09:57:53.107Z,8.10
2017-10-30T10:00:22.344Z,8.10
2017-10-30T10:02:53.164Z,8.20
2017-10-30T10:05:22.399Z,8.20
2017-10-30T10:07:51.659Z,8.20
2017-10-30T10:10:20.938Z,8.10
2017-10-30T10:12:50.178Z,8.20
2017-10-30T10:15:20.237Z,8.30
2017-10-30T10:17:49.521Z,8.30
2017-10-30T10:20:18.760Z,8.30
2017-10-30T10:22:48.000Z,8.40
2017-10-30T10:25:18.001Z,8.50
2017-10-30T10:27:47.243Z,8.50
2017-10-30T10:30:16.479Z,8.60
2017-10-30T10:32:45.732Z,8.60
2017-10-30T10:35:14.958Z,8.60
2017-10-30T10:37:44.186Z,8.60
2017-10-30T10:40:13.435Z,8.60
2017-10-30T10:42:42.671Z,8.70
2017-10-30T10:45:11.953Z,8.70
2017-10-30T10:47:41.924Z,8.80
2017-10-30T10:50:11.171Z,8.80
2017-10-30T10:52:41.395Z,8.90
2017-10-30T10:55:10.900Z,8.90
2017-10-30T10:57:40.131Z,9.00
2017-10-30T11:00:09.384Z,9.00
2017-10-30T11:02:38.640Z,9.00
2017-10-30T11:05:07.884Z,9.10
2017-10-30T11:07:37.129Z,9.10
2017-10-30T11:10:06.389Z,9.20
2017-10-30T11:12:35.639Z,9.20
2017-10-30T11:15:04.884Z,9.20
2017-10-30T11:17:34.139Z,9.30
2017-10-30T11:20:04.328Z,9.40
2017-10-30T11:22:33.563Z,9.40
2017-10-30T11:25:02.836Z,9.50
2017-10-30T11:27:32.080Z,9.50
2017-10-30T11:30:02.084Z,9.70
2017-10-30T11:32:31.345Z,9.60
2017-10-30T11:35:00.587Z,9.70
2017-10-30T11:37:29.844Z,9.70
2017-10-30T11:39:59.087Z,9.80
2017-10-30T11:42:28.357Z,9.70
2017-10-30T11:44:57.653Z,9.50
2017-10-30T11:47:26.974Z,9.40
2017-10-30T11:49:56.208Z,9.30
2017-10-30T11:52:26.300Z,9.30
2017-10-30T11:54:55.548Z,9.30
2017-10-30T11:57:24.797Z,9.40
2017-10-30T11:59:54.135Z,9.40
2017-10-30T12:02:23.365Z,9.40
2017-10-30T12:04:52.600Z,9.60
2017-10-30T12:07:21.855Z,9.60
2017-10-30T12:09:51.092Z,9.80
2017-10-30T12:12:21.153Z,9.80
2017-10-30T12:14:50.401Z,9.90
2017-10-30T12:17:19.645Z,10.00
2017-10-30T12:19:49.024Z,10.10
2017-10-30T12:22:18.263Z,10.10
2017-10-30T12:24:47.495Z,10.10
2017-10-30T12:27:16.765Z,10.10
2017-10-30T12:29:46.011Z,10.00
2017-10-30T12:32:15.260Z,10.00
2017-10-30T12:34:44.520Z,10.00
2017-10-30T12:37:13.772Z,10.10
2017-10-30T12:39:43.020Z,10.20
2017-10-30T12:42:12.296Z,10.30
2017-10-30T12:44:41.552Z,10.30
2017-10-30T12:47:10.817Z,10.30
2017-10-30T12:49:40.851Z,10.40
2017-10-30T12:52:10.867Z,10.40
2017-10-30T12:54:40.144Z,10.40
2017-10-30T12:57:09.405Z,10.40
2017-10-30T12:59:38.654Z,10.40
2017-10-30T13:02:07.950Z,10.30
2017-10-30T13:04:44.324Z,10.30
2017-10-30T13:07:13.634Z,10.20
2017-10-30T13:09:42.882Z,10.20
2017-10-30T13:12:12.142Z,10.20
2017-10-30T13:14:42.172Z,10.20
2017-10-30T13:17:11.493Z,10.10
2017-10-30T13:19:40.735Z,10.20
2017-10-30T13:22:10.008Z,10.30
2017-10-30T13:24:39.260Z,10.40
2017-10-30T13:27:09.299Z,10.40
2017-10-30T13:29:38.549Z,10.40
2017-10-30T13:32:07.824Z,10.40
2017-10-30T13:34:37.105Z,10.30
2017-10-30T13:37:06.357Z,10.20
2017-10-30T13:39:35.620Z,10.20
2017-10-30T13:42:05.656Z,10.20
2017-10-30T13:44:34.911Z,10.10
2017-10-30T13:47:04.164Z,10.10
2017-10-30T13:49:33.430Z,10.20
2017-10-30T13:52:02.699Z,10.20
2017-10-30T13:54:32.715Z,10.40
2017-10-30T13:57:02.747Z,10.40
2017-10-30T13:59:31.999Z,10.40
2017-10-30T14:02:01.286Z,10.40
2017-10-30T14:04:30.523Z,10.50
2017-10-30T14:06:59.772Z,10.60
2017-10-30T14:09:29.019Z,10.60
2017-10-30T14:11:58.284Z,10.60
2017-10-30T14:14:27.545Z,10.60
2017-10-30T14:16:56.792Z,10.70
2017-10-30T14:19:26.052Z,10.60
2017-10-30T14:21:55.324Z,10.50
2017-10-30T14:24:25.349Z,10.40
2017-10-30T14:26:55.357Z,10.40
2017-10-30T14:29:25.379Z,10.40
2017-10-30T14:31:55.425Z,10.40
2017-10-30T14:34:24.679Z,10.40
2017-10-30T14:36:53.982Z,10.30
2017-10-30T14:39:23.249Z,10.40
2017-10-30T14:41:52.495Z,10.30
2017-10-30T14:44:22.519Z,10.20
2017-10-30T14:46:52.534Z,10.10
2017-10-30T14:49:21.766Z,10.10
2017-10-30T14:51:51.006Z,10.00
2017-10-30T14:54:21.484Z,10.00
2017-10-30T14:56:50.736Z,10.00
2017-10-30T14:59:19.996Z,10.00
2017-10-30T15:01:49.251Z,10.00
2017-10-30T15:04:18.542Z,10.00
2017-10-30T15:06:47.769Z,10.10
2017-10-30T15:09:17.807Z,10.20
2017-10-30T15:11:47.063Z,10.20
2017-10-30T15:14:16.302Z,10.20
2017-10-30T15:16:45.566Z,10.20
2017-10-30T15:19:14.804Z,10.10
2017-10-30T15:21:44.056Z,10.10
2017-10-30T15:24:14.252Z,10.10
2017-10-30T15:26:43.507Z,10.10
2017-10-30T15:29:13.516Z,10.20
2017-10-30T15:31:43.539Z,10.20
2017-10-30T15:34:13.543Z,10.10
2017-10-30T15:36:42.819Z,10.10
2017-10-30T15:39:12.064Z,10.10
2017-10-30T15:41:56.236Z,10.10
2017-10-30T15:44:25.483Z,10.00
2017-10-30T15:46:54.754Z,10.00
2017-10-30T15:49:24.004Z,10.00
2017-10-30T15:51:54.804Z,10.00
2017-10-30T15:54:24.061Z,9.90
2017-10-30T15:56:53.337Z,9.90
2017-10-30T15:59:23.779Z,9.80
2017-10-30T16:01:53.784Z,9.70
2017-10-30T16:04:23.832Z,9.70
2017-10-30T16:06:53.068Z,9.70
2017-10-30T16:09:22.304Z,9.70
2017-10-30T16:11:53.617Z,9.80
2017-10-30T16:14:22.888Z,9.70
2017-10-30T16:16:52.106Z,9.70
2017-10-30T16:19:21.344Z,9.70
2017-10-30T16:21:51.836Z,9.70
2017-10-30T16:24:21.096Z,9.70
2017-10-30T16:26:50.335Z,9.70
2017-10-30T16:29:19.567Z,9.70
2017-10-30T16:31:48.820Z,9.70
2017-10-30T16:34:18.052Z,9.70
2017-10-30T16:36:47.288Z,9.70
2017-10-30T16:39:16.544Z,9.70
2017-10-30T16:41:45.776Z,9.70
2017-10-30T16:44:15.833Z,9.70
2017-10-30T16:46:46.297Z,9.70
2017-10-30T16:49:15.542Z,9.60
2017-10-30T16:51:44.797Z,9.60
2017-10-30T16:54:14.019Z,9.60
2017-10-30T16:56:43.246Z,9.60
2017-10-30T16:59:12.553Z,9.60
2017-10-30T17:01:41.790Z,9.60
2017-10-30T17:04:11.040Z,9.60
2017-10-30T17:06:40.415Z,9.50
2017-10-30T17:09:09.635Z,9.60
2017-10-30T17:11:39.650Z,9.50
2017-10-30T17:14:09.682Z,9.50
2017-10-30T17:16:38.900Z,9.50
2017-10-30T17:19:08.227Z,9.50
2017-10-30T17:21:37.579Z,9.40
2017-10-30T17:24:14.689Z,9.40
2017-10-30T17:26:44.741Z,9.30
2017-10-30T17:29:13.983Z,9.30
2017-10-30T17:31:43.211Z,9.20
2017-10-30T17:34:12.470Z,9.20
2017-10-30T17:36:42.475Z,9.10
2017-10-30T17:39:11.724Z,9.10
2017-10-30T17:41:40.956Z,9.10
2017-10-30T17:44:10.188Z,9.00
2017-10-30T17:46:40.187Z,9.00
2017-10-30T17:49:09.438Z,8.90
2017-10-30T17:51:38.689Z,8.80
2017-10-30T17:54:07.919Z,8.80
2017-10-30T17:56:37.285Z,8.70
2017-10-30T17:59:06.671Z,8.70
2017-10-30T18:01:35.924Z,8.60
2017-10-30T18:04:06.617Z,8.50
2017-10-30T18:06:35.864Z,8.50
2017-10-30T18:09:05.099Z,8.60
2017-10-30T18:11:34.367Z,8.60
2017-10-30T18:14:03.609Z,8.60
2017-10-30T18:16:32.839Z,8.60
2017-10-30T18:19:02.190Z,8.60
2017-10-30T18:21:31.425Z,8.70
2017-10-30T18:24:00.651Z,8.70
2017-10-30T18:26:29.911Z,8.80
2017-10-30T18:28:59.146Z,8.80
2017-10-30T18:31:29.172Z,8.70
2017-10-30T18:33:58.411Z,8.70
2017-10-30T18:36:27.672Z,8.60
2017-10-30T18:38:57.696Z,8.50
2017-10-30T18:41:26.952Z,8.50
2017-10-30T18:43:57.187Z,8.50
2017-10-30T18:46:26.461Z,8.40
2017-10-30T18:48:55.704Z,8.30
2017-10-30T18:51:25.789Z,8.20
2017-10-30T18:53:55.056Z,8.20
2017-10-30T18:56:24.263Z,8.20
2017-10-30T18:58:53.543Z,8.20
2017-10-30T19:01:22.806Z,8.20
2017-10-30T19:03:52.087Z,8.20
2017-10-30T19:06:21.363Z,8.30
2017-10-30T19:08:50.605Z,8.40
2017-10-30T19:11:19.860Z,8.40
2017-10-30T19:13:49.147Z,8.50
2017-10-30T19:16:18.395Z,8.60
2017-10-30T19:18:47.643Z,8.60
2017-10-30T19:21:16.983Z,8.60
2017-10-30T19:23:46.246Z,8.60
2017-10-30T19:26:15.492Z,8.80
2017-10-30T19:28:44.768Z,8.90
2017-10-30T19:31:14.937Z,9.00
2017-10-30T19:33:44.220Z,9.00
2017-10-30T19:36:13.460Z,9.10
2017-10-30T19:38:42.719Z,9.10
2017-10-30T19:41:12.099Z,9.10
2017-10-30T19:43:41.352Z,9.00
2017-10-30T19:46:11.394Z,9.10
2017-10-30T19:48:40.671Z,9.10
2017-10-30T19:51:10.730Z,9.00
2017-10-30T19:53:40.040Z,9.00
2017-10-30T19:56:09.294Z,9.10
2017-10-30T19:58:39.323Z,9.00
2017-10-30T20:01:08.570Z,9.00
2017-10-30T20:03:37.818Z,8.90
2017-10-30T20:06:13.466Z,8.80
2017-10-30T20:11:58.835Z,8.80
2017-10-30T20:14:28.074Z,8.80
2017-10-30T20:16:57.333Z,8.80
2017-10-30T20:19:26.608Z,8.70
2017-10-30T20:21:55.812Z,8.70
2017-10-30T20:24:25.059Z,8.70
2017-10-30T20:26:55.059Z,8.50
2017-10-30T20:29:24.332Z,8.50
2017-10-30T20:31:53.578Z,8.50
2017-10-30T20:34:23.590Z,8.40
2017-10-30T20:36:53.617Z,8.40
2017-10-30T20:39:22.847Z,8.30
2017-10-30T20:41:52.105Z,8.30
2017-10-30T20:44:21.359Z,8.20
2017-10-30T20:46:50.595Z,8.20
2017-10-30T20:49:19.825Z,8.20
2017-10-30T20:51:49.089Z,8.20
2017-10-30T20:54:18.327Z,8.20
2017-10-30T20:56:47.569Z,8.30
2017-10-30T20:59:16.803Z,8.30
2017-10-30T21:01:46.803Z,8.30
2017-10-30T21:04:16.071Z,8.20
2017-10-30T21:06:45.303Z,8.20
2017-10-30T21:09:14.547Z,8.20
2017-10-30T21:11:43.792Z,8.20
2017-10-30T21:14:13.019Z,8.20
2017-10-30T21:16:43.058Z,8.10
2017-10-30T21:19:12.283Z,8.10
2017-10-30T21:21:41.517Z,8.10
2017-10-30T21:24:10.767Z,8.00
2017-10-30T21:26:40.767Z,8.00
2017-10-30T21:29:10.052Z,8.00
2017-10-30T21:31:39.267Z,8.00
2017-10-30T21:34:08.503Z,8.00
2017-10-30T21:36:37.768Z,8.00
2017-10-30T21:39:06.999Z,8.00
2017-10-30T21:41:36.240Z,8.00
2017-10-30T21:44:05.523Z,8.00
2017-10-30T21:46:34.731Z,8.00
2017-10-30T21:49:03.968Z,8.00
2017-10-30T21:51:33.240Z,8.00
2017-10-30T21:54:02.472Z,8.00
2017-10-30T21:56:31.703Z,7.90
2017-10-30T21:59:00.963Z,7.90
2017-10-30T22:01:30.193Z,7.90
2017-10-30T22:03:59.420Z,7.90
2017-10-30T22:06:28.676Z,7.90
2017-10-30T22:08:57.909Z,7.80
2017-10-30T22:11:27.133Z,7.80
2017-10-30T22:13:57.147Z,7.80
2017-10-30T22:16:26.402Z,7.80
2017-10-30T22:18:56.543Z,7.70
2017-10-30T22:21:25.768Z,7.70
2017-10-30T22:23:55.009Z,7.80
2017-10-30T22:26:24.256Z,7.70
2017-10-30T22:28:53.551Z,7.70
2017-10-30T22:31:22.796Z,7.70
2017-10-30T22:33:52.024Z,7.80
2017-10-30T22:36:21.283Z,7.90
2017-10-30T22:38:50.536Z,7.90
2017-10-30T22:41:21.951Z,7.90
2017-10-30T22:43:51.179Z,7.70
2017-10-30T22:46:20.464Z,7.60
2017-10-30T22:48:49.736Z,7.50
2017-10-30T22:51:19.722Z,7.40
2017-10-30T22:53:48.979Z,7.40
2017-10-30T22:56:18.211Z,7.40
2017-10-30T22:58:47.442Z,7.40
2017-10-30T23:01:17.462Z,7.20
2017-10-30T23:03:47.460Z,7.10
2017-10-30T23:06:16.723Z,7.10
2017-10-30T23:08:45.945Z,7.10
2017-10-30T23:11:15.182Z,7.10
2017-10-30T23:13:44.440Z,7.00
2017-10-30T23:16:13.668Z,6.90
2017-10-30T23:18:42.899Z,6.90
2017-10-30T23:21:12.156Z,6.80
2017-10-30T23:23:41.385Z,6.80
2017-10-30T23:26:11.424Z,6.70
2017-10-30T23:28:40.660Z,6.70
2017-10-30T23:31:09.889Z,6.70
2017-10-30T23:33:40.024Z,6.50
2017-10-30T23:36:09.259Z,6.50
2017-10-30T23:38:38.491Z,6.50
2017-10-30T23:41:07.760Z,6.40
2017-10-30T23:43:36.986Z,6.40
2017-10-30T23:46:06.219Z,6.40
2017-10-30T23:48:36.235Z,6.40
2017-10-30T23:51:05.479Z,6.30
2017-10-30T23:53:34.735Z,6.30
2017-10-30T23:56:03.972Z,6.30
2017-10-30T23:58:33.210Z,6.30
